Terminal Aerodrome Forecast
Issued by NWS Houston/Galveston, TX

Home | Current Version | Previous Version | Text Only | Print | Product List | Glossary On
Versions: 1 2 3 4 5 6 7 8 9 10 11 12 13 14 15 16 17 18 19 20 21 22 23 24 25 26 27 28 29 30
000
FTUS44 KHGX 012047 AAA
TAFGLS
TAF AMD
KGLS 012047Z 0121/0218 20013KT P6SM VCTS FEW035CB SCT050 BKN090
      TEMPO 0121/0201 VRB25KT 4SM TSRA BKN035CB
     FM020600 VRB04KT P6SM SCT025 SCT250
     FM021500 33007KT P6SM SCT020 SCT250=

USA.gov is the U.S. government's official web portal to all federal, state and local government web resources and services.